This is the latest recevied weather packets stored in our database for station/object F4ELU-13. If no packets are shown the sender has not sent any weather packets the latest 10 day(s).
| Time | Temp. | Humidity | Pressure | Rain* | Wind** | Luminosity | Snow |
|---|---|---|---|---|---|---|---|
| 1788575763 | 15° C | 83% | 1021.3 hPa | 0 mm | - | - | - |
| 1788575223 | 15.56° C | 81% | 1021 hPa | 0 mm | - | - | - |
| 1788574683 | 15.56° C | 81% | 1021.1 hPa | 0 mm | - | - | - |
| 1788574143 | 15.56° C | 81% | 1021 hPa | 0 mm | - | - | - |
| 1788573603 | 15.56° C | 80% | 1020.9 hPa | 0 mm | - | - | - |
| 1788573243 | 15.56° C | 79% | 1020.9 hPa | 0 mm | - | - | - |
| 1788572703 | 16.67° C | 76% | 1020.9 hPa | 0 mm | - | - | - |
| 1788572163 | 16.67° C | 75% | 1020.7 hPa | 0 mm | - | - | - |
| 1788571623 | 16.11° C | 76% | 1020.9 hPa | 0 mm | - | - | - |
| 1788571083 | 16.67° C | 75% | 1020.6 hPa | 0 mm | - | - | - |
| 1788570543 | 16.67° C | 75% | 1020.7 hPa | 0 mm | - | - | - |
| 1788570003 | 16.67° C | 77% | 1020.6 hPa | 0 mm | - | - | - |
| 1788569643 | 16.67° C | 76% | 1020.4 hPa | 0 mm | - | - | - |
| 1788569103 | 16.67° C | 77% | 1020.6 hPa | 0 mm | - | - | - |
| 1788568563 | 16.67° C | 76% | 1020.5 hPa | 0 mm | - | - | - |
| 1788568023 | 17.22° C | 76% | 1020.4 hPa | 0 mm | - | - | - |
| 1788567483 | 17.22° C | 75% | 1020.5 hPa | 0 mm | - | - | - |
| 1788566943 | 17.78° C | 74% | 1020.4 hPa | 0 mm | - | - | - |
| 1788566403 | 17.78° C | 71% | 1020.6 hPa | 0 mm | - | - | - |
| 1788566043 | 17.78° C | 71% | 1020.5 hPa | 0 mm | - | - | - |
| 1788565503 | 18.33° C | 68% | 1020.5 hPa | 0 mm | - | - | - |
| 1788564963 | 18.89° C | 65% | 1020.4 hPa | 0 mm | - | - | - |
| 1788564423 | 19.44° C | 64% | 1020.3 hPa | 0 mm | - | - | - |
| 1788563884 | 19.44° C | 62% | 1020.4 hPa | 0 mm | - | - | - |
| 1788563343 | 20° C | 61% | 1020.4 hPa | 0 mm | - | - | - |
* Rain latest hour (hover to see other rain measurements)
** Current wind speed in m/s (hover to see current wind gust speed)